createdAt,value
2018-04-09T00:00:09.372Z,18.54
2018-04-09T00:00:49.857Z,18.54
2018-04-09T00:01:30.343Z,18.6
2018-04-09T00:02:10.835Z,18.52
2018-04-09T00:02:51.319Z,18.33
2018-04-09T00:03:31.836Z,18.45
2018-04-09T00:04:12.299Z,18.52
2018-04-09T00:04:52.865Z,18.45
2018-04-09T00:05:33.354Z,18.44
2018-04-09T00:06:13.783Z,18.45
2018-04-09T00:06:54.266Z,18.41
2018-04-09T00:07:34.752Z,18.37
2018-04-09T00:08:15.245Z,18.45
2018-04-09T00:08:55.740Z,18.48
2018-04-09T00:09:36.292Z,18.36
2018-04-09T00:10:16.775Z,18.5
2018-04-09T00:10:57.289Z,18.26
2018-04-09T00:11:37.772Z,18.3
2018-04-09T00:12:18.219Z,18.36
2018-04-09T00:12:58.726Z,18.27
2018-04-09T00:13:39.194Z,18.33
2018-04-09T00:14:19.715Z,18.36
2018-04-09T00:15:00.267Z,18.35
2018-04-09T00:15:40.781Z,18.29
2018-04-09T00:16:21.291Z,18.25
2018-04-09T00:17:01.783Z,18.35
2018-04-09T00:17:42.267Z,18.35
2018-04-09T00:18:22.743Z,18.36
2018-04-09T00:19:03.263Z,18.37
2018-04-09T00:19:43.769Z,18.33
2018-04-09T00:20:24.300Z,18.3
2018-04-09T00:21:04.725Z,18.35
2018-04-09T00:21:45.222Z,18.27
2018-04-09T00:22:25.715Z,18.32
2018-04-09T00:23:06.204Z,18.32
2018-04-09T00:23:46.681Z,18.3
2018-04-09T00:24:27.152Z,18.29
2018-04-09T00:25:07.678Z,18.17
2018-04-09T00:25:48.152Z,18.25
2018-04-09T00:26:28.624Z,18.21
2018-04-09T00:27:09.134Z,18.23
2018-04-09T00:27:49.695Z,18.17
2018-04-09T00:28:30.165Z,18.26
2018-04-09T00:29:10.667Z,18.2
2018-04-09T00:29:51.163Z,18.18
2018-04-09T00:30:31.611Z,18.2
2018-04-09T00:31:12.129Z,18.17
2018-04-09T00:31:52.671Z,18.15
2018-04-09T00:32:33.129Z,18.12
2018-04-09T00:33:13.582Z,18.14
2018-04-09T00:33:54.059Z,18.18
2018-04-09T00:34:34.720Z,18.1
2018-04-09T00:35:15.218Z,18.05
2018-04-09T00:35:55.691Z,18.11
2018-04-09T00:36:36.201Z,18.1
2018-04-09T00:37:16.722Z,18.08
2018-04-09T00:37:57.186Z,18
2018-04-09T00:38:37.664Z,18.03
2018-04-09T00:39:18.130Z,18.1
2018-04-09T00:39:58.649Z,17.93
2018-04-09T00:40:39.125Z,17.97
2018-04-09T00:41:19.637Z,18.07
2018-04-09T00:42:00.085Z,18.1
2018-04-09T00:42:40.597Z,18.1
2018-04-09T00:43:21.056Z,18.14
2018-04-09T00:44:01.609Z,18.1
2018-04-09T00:44:42.043Z,18.14
2018-04-09T00:45:22.525Z,18.08
2018-04-09T00:46:03.013Z,18.03
2018-04-09T00:46:43.518Z,18.1
2018-04-09T00:47:24.021Z,18.07
2018-04-09T00:48:04.545Z,18.03
2018-04-09T00:48:45.036Z,18.08
2018-04-09T00:49:25.518Z,18.08
2018-04-09T00:50:06.020Z,18.1
2018-04-09T00:50:46.529Z,18
2018-04-09T00:51:27.047Z,17.96
2018-04-09T00:52:07.541Z,17.99
2018-04-09T00:52:47.981Z,17.97
2018-04-09T00:53:28.491Z,17.96
2018-04-09T00:54:09.103Z,17.99
2018-04-09T00:54:49.599Z,18.02
2018-04-09T00:55:30.094Z,18.03
2018-04-09T00:56:10.602Z,17.97
2018-04-09T00:56:51.104Z,17.95
2018-04-09T00:57:31.596Z,18
2018-04-09T00:58:12.096Z,17.93
2018-04-09T00:58:52.606Z,17.95
2018-04-09T00:59:33.108Z,17.93
2018-04-09T01:00:13.630Z,17.95
2018-04-09T01:00:54.159Z,17.99
2018-04-09T01:01:34.619Z,17.96
2018-04-09T01:02:15.099Z,17.97
2018-04-09T01:02:55.570Z,17.84
2018-04-09T01:03:36.096Z,17.92
2018-04-09T01:04:16.576Z,17.95
2018-04-09T01:04:57.100Z,17.9
2018-04-09T01:05:37.602Z,17.87
2018-04-09T01:06:18.065Z,17.87
2018-04-09T01:06:58.566Z,17.86
2018-04-09T01:07:39.029Z,17.9
2018-04-09T01:08:19.540Z,17.79
2018-04-09T01:09:00.058Z,17.71
2018-04-09T01:09:40.548Z,17.75
2018-04-09T01:10:21.050Z,17.78
2018-04-09T01:11:01.553Z,17.79
2018-04-09T01:11:42.099Z,17.75
2018-04-09T01:12:22.539Z,17.78
2018-04-09T01:13:03.036Z,17.87
2018-04-09T01:13:43.536Z,17.86
2018-04-09T01:14:24.059Z,17.75
2018-04-09T01:15:04.547Z,17.86
2018-04-09T01:15:44.989Z,17.87
2018-04-09T01:16:25.504Z,17.82
2018-04-09T01:17:05.978Z,17.86
2018-04-09T01:17:46.462Z,17.89
2018-04-09T01:18:26.990Z,17.9
2018-04-09T01:19:07.494Z,17.72
2018-04-09T01:19:47.970Z,17.74
2018-04-09T01:20:28.465Z,17.81
2018-04-09T01:21:08.945Z,17.82
2018-04-09T01:21:49.463Z,17.77
2018-04-09T01:22:29.946Z,17.77
2018-04-09T01:23:10.464Z,17.93
2018-04-09T01:23:50.950Z,17.89
2018-04-09T01:24:31.487Z,17.71
2018-04-09T01:25:11.941Z,17.77
2018-04-09T01:25:52.394Z,17.75
2018-04-09T01:26:32.904Z,17.75
2018-04-09T01:27:13.353Z,17.74
2018-04-09T01:27:53.896Z,17.82
2018-04-09T01:28:34.349Z,17.77
2018-04-09T01:29:14.877Z,17.78
2018-04-09T01:29:55.378Z,17.79
2018-04-09T01:30:35.895Z,17.81
2018-04-09T01:31:16.396Z,17.72
2018-04-09T01:31:56.892Z,17.75
2018-04-09T01:32:37.385Z,17.74
2018-04-09T01:33:17.868Z,17.79
2018-04-09T01:33:58.352Z,17.72
2018-04-09T01:34:38.862Z,17.75
2018-04-09T01:35:19.334Z,17.7
2018-04-09T01:35:59.843Z,17.66
2018-04-09T01:36:40.301Z,17.7
2018-04-09T01:37:20.825Z,17.64
2018-04-09T01:38:01.316Z,17.71
2018-04-09T01:38:41.804Z,17.64
2018-04-09T01:39:22.387Z,17.72
2018-04-09T01:40:02.843Z,17.72
2018-04-09T01:40:43.330Z,17.71
2018-04-09T01:41:23.860Z,17.74
2018-04-09T01:42:04.342Z,17.7
2018-04-09T01:42:44.918Z,17.74
2018-04-09T01:43:25.376Z,17.72
2018-04-09T01:44:05.849Z,17.74
2018-04-09T01:44:46.438Z,17.7
2018-04-09T01:45:26.851Z,17.74
2018-04-09T01:46:07.374Z,17.71
2018-04-09T01:46:47.932Z,17.71
2018-04-09T01:47:28.416Z,17.71
2018-04-09T01:48:08.901Z,17.79
2018-04-09T01:48:49.439Z,17.77
2018-04-09T01:49:29.939Z,17.78
2018-04-09T01:50:10.424Z,17.74
2018-04-09T01:50:50.940Z,17.71
2018-04-09T01:51:31.406Z,17.63
2018-04-09T01:52:11.869Z,17.59
2018-04-09T01:52:52.387Z,17.59
2018-04-09T01:53:32.902Z,17.63
2018-04-09T01:54:13.353Z,17.63
2018-04-09T01:54:53.858Z,17.66
2018-04-09T01:55:34.342Z,17.66
2018-04-09T01:56:14.830Z,17.64
2018-04-09T01:56:55.325Z,17.68
2018-04-09T01:57:35.843Z,17.64
2018-04-09T01:58:16.347Z,17.66
2018-04-09T01:58:56.836Z,17.58
2018-04-09T01:59:37.320Z,17.62
2018-04-09T02:00:17.853Z,17.64
2018-04-09T02:00:58.376Z,17.56
2018-04-09T02:01:38.883Z,17.63
2018-04-09T02:02:19.345Z,17.63
2018-04-09T02:02:59.855Z,17.56
2018-04-09T02:03:40.345Z,17.63
2018-04-09T02:04:20.831Z,17.62
2018-04-09T02:05:01.306Z,17.59
2018-04-09T02:05:41.786Z,17.64
2018-04-09T02:06:22.316Z,17.52
2018-04-09T02:07:02.832Z,17.58
2018-04-09T02:07:43.308Z,17.49
2018-04-09T02:08:23.786Z,17.55
2018-04-09T02:09:04.229Z,17.58
2018-04-09T02:09:44.725Z,17.52
2018-04-09T02:10:25.242Z,17.51
2018-04-09T02:11:05.701Z,17.48
2018-04-09T02:11:46.174Z,17.58
2018-04-09T02:12:26.685Z,17.51
2018-04-09T02:13:07.161Z,17.52
2018-04-09T02:13:47.675Z,17.51
2018-04-09T02:14:28.265Z,17.49
2018-04-09T02:15:08.752Z,17.55
2018-04-09T02:15:49.245Z,17.49
2018-04-09T02:16:29.759Z,17.51
2018-04-09T02:17:10.264Z,17.58
2018-04-09T02:17:50.728Z,17.56
2018-04-09T02:18:31.221Z,17.52
2018-04-09T02:19:11.726Z,17.52
2018-04-09T02:19:52.221Z,17.46
2018-04-09T02:20:32.717Z,17.56
2018-04-09T02:21:13.210Z,17.49
2018-04-09T02:21:53.741Z,17.49
2018-04-09T02:22:34.242Z,17.46
2018-04-09T02:23:14.701Z,17.43
2018-04-09T02:23:55.163Z,17.43
2018-04-09T02:24:35.722Z,17.44
2018-04-09T02:25:16.191Z,17.38
2018-04-09T02:25:56.688Z,17.49
2018-04-09T02:26:37.175Z,17.43
2018-04-09T02:27:17.673Z,17.51
2018-04-09T02:27:58.177Z,17.59
2018-04-09T02:28:38.684Z,17.54
2018-04-09T02:29:19.142Z,17.43
2018-04-09T02:29:59.624Z,17.51
2018-04-09T02:30:40.141Z,17.49
2018-04-09T02:31:20.634Z,17.49
2018-04-09T02:32:01.156Z,17.52
2018-04-09T02:32:41.616Z,17.55
2018-04-09T02:33:22.102Z,17.54
2018-04-09T02:34:02.564Z,17.54
2018-04-09T02:34:43.036Z,17.49
2018-04-09T02:35:23.510Z,17.56
2018-04-09T02:36:04.059Z,17.49
2018-04-09T02:36:44.512Z,17.54
2018-04-09T02:37:25.036Z,17.56
2018-04-09T02:38:05.504Z,17.55
2018-04-09T02:38:46.046Z,17.55
2018-04-09T02:39:26.577Z,17.51
2018-04-09T02:40:06.987Z,17.52
2018-04-09T02:40:47.484Z,17.54
2018-04-09T02:41:27.990Z,17.54
2018-04-09T02:42:08.471Z,17.58
2018-04-09T02:42:48.964Z,17.49
2018-04-09T02:43:29.450Z,17.52
2018-04-09T02:44:09.981Z,17.55
2018-04-09T02:44:50.448Z,17.58
2018-04-09T02:45:30.920Z,17.52
2018-04-09T02:46:11.466Z,17.55
2018-04-09T02:46:51.951Z,17.54
2018-04-09T02:47:32.437Z,17.52
2018-04-09T02:48:12.933Z,17.48
2018-04-09T02:48:53.426Z,17.55
2018-04-09T02:49:33.909Z,17.56
2018-04-09T02:50:14.450Z,17.44
2018-04-09T02:50:54.963Z,17.48
2018-04-09T02:51:35.419Z,17.43
2018-04-09T02:52:15.885Z,17.51
2018-04-09T02:52:56.396Z,17.51
2018-04-09T02:53:36.900Z,17.52
2018-04-09T02:54:17.381Z,17.51
2018-04-09T02:54:57.876Z,17.54
2018-04-09T02:55:38.392Z,17.54
2018-04-09T02:56:18.850Z,17.54
2018-04-09T02:56:59.339Z,17.46
2018-04-09T02:57:39.809Z,17.48
2018-04-09T02:58:20.304Z,17.51
2018-04-09T02:59:00.815Z,17.54
2018-04-09T02:59:41.314Z,17.44
2018-04-09T03:00:21.778Z,17.37
2018-04-09T03:01:02.294Z,17.46
2018-04-09T03:01:42.803Z,17.44
2018-04-09T03:02:23.299Z,17.49
2018-04-09T03:03:03.794Z,17.49
2018-04-09T03:03:44.291Z,17.41
2018-04-09T03:04:24.758Z,17.44
2018-04-09T03:05:05.330Z,17.49
2018-04-09T03:05:45.783Z,17.55
2018-04-09T03:06:26.297Z,17.52
2018-04-09T03:07:06.713Z,17.44
2018-04-09T03:07:47.218Z,17.51
2018-04-09T03:08:27.693Z,17.52
2018-04-09T03:09:08.154Z,17.46
2018-04-09T03:09:48.675Z,17.41
2018-04-09T03:10:29.150Z,17.54
2018-04-09T03:11:09.617Z,17.52
2018-04-09T03:11:50.131Z,17.52
2018-04-09T03:12:30.606Z,17.48
2018-04-09T03:13:11.114Z,17.54
2018-04-09T03:13:51.580Z,17.48
2018-04-09T03:14:32.054Z,17.48
2018-04-09T03:15:12.573Z,17.46
2018-04-09T03:15:53.035Z,17.49
2018-04-09T03:16:33.549Z,17.54
2018-04-09T03:17:14.023Z,17.52
2018-04-09T03:17:54.501Z,17.46
2018-04-09T03:18:35.018Z,17.44
2018-04-09T03:19:15.528Z,17.4
2018-04-09T03:19:56.022Z,17.46
2018-04-09T03:20:36.526Z,17.46
2018-04-09T03:21:17.028Z,17.44
2018-04-09T03:21:57.507Z,17.54
2018-04-09T03:22:38.067Z,17.44
2018-04-09T03:23:18.574Z,17.36
2018-04-09T03:23:59.078Z,17.4
2018-04-09T03:24:39.564Z,17.48
2018-04-09T03:25:20.016Z,17.52
2018-04-09T03:26:00.565Z,17.46
2018-04-09T03:26:41.047Z,17.56
2018-04-09T03:27:21.500Z,17.52
2018-04-09T03:28:02.019Z,17.51
2018-04-09T03:28:42.497Z,17.4
2018-04-09T03:29:23.315Z,17.46
2018-04-09T03:30:03.780Z,17.43
2018-04-09T03:30:44.241Z,17.33
2018-04-09T03:31:24.785Z,17.4
2018-04-09T03:32:05.255Z,17.41
2018-04-09T03:32:45.716Z,17.41
2018-04-09T03:33:26.231Z,17.4
2018-04-09T03:34:06.739Z,17.51
2018-04-09T03:34:47.249Z,17.54
2018-04-09T03:35:27.717Z,17.41
2018-04-09T03:36:08.196Z,17.46
2018-04-09T03:36:48.727Z,17.38
2018-04-09T03:37:29.225Z,17.48
2018-04-09T03:38:09.781Z,17.43
2018-04-09T03:38:50.240Z,17.36
2018-04-09T03:39:30.710Z,17.38
2018-04-09T03:40:11.191Z,17.34
2018-04-09T03:40:51.687Z,17.44
2018-04-09T03:41:32.128Z,17.37
2018-04-09T03:42:12.616Z,17.38
2018-04-09T03:42:53.112Z,17.25
2018-04-09T03:43:33.628Z,17.22
2018-04-09T03:44:14.134Z,17.25
2018-04-09T03:44:54.585Z,17.31
2018-04-09T03:45:35.160Z,17.34
2018-04-09T03:46:15.672Z,17.38
2018-04-09T03:46:56.131Z,17.37
2018-04-09T03:47:36.644Z,17.41
2018-04-09T03:48:17.143Z,17.37
2018-04-09T03:48:57.637Z,17.37
2018-04-09T03:49:38.131Z,17.34
2018-04-09T03:50:18.645Z,17.34
2018-04-09T03:50:59.115Z,17.34
2018-04-09T03:51:39.609Z,17.33
2018-04-09T03:52:20.106Z,17.48
2018-04-09T03:53:00.571Z,17.36
2018-04-09T03:53:41.100Z,17.43
2018-04-09T03:54:21.561Z,17.38
2018-04-09T03:55:02.087Z,17.36
2018-04-09T03:55:42.602Z,17.44
2018-04-09T03:56:23.060Z,17.43
2018-04-09T03:57:03.560Z,17.4
2018-04-09T03:57:44.041Z,17.43
2018-04-09T03:58:24.590Z,17.41
2018-04-09T03:59:05.012Z,17.33
2018-04-09T03:59:45.567Z,17.38
2018-04-09T04:00:26.069Z,17.34
2018-04-09T04:01:06.507Z,17.33
2018-04-09T04:01:47.039Z,17.38
2018-04-09T04:02:27.551Z,17.43
2018-04-09T04:03:08.013Z,17.34
2018-04-09T04:03:48.463Z,17.37
2018-04-09T04:04:29.058Z,17.31
2018-04-09T04:05:09.510Z,17.25
2018-04-09T04:05:50.021Z,17.3
2018-04-09T04:06:30.513Z,17.31
2018-04-09T04:07:11.004Z,17.31
2018-04-09T04:07:51.534Z,17.19
2018-04-09T04:08:31.998Z,17.12
2018-04-09T04:09:12.495Z,17.06
2018-04-09T04:09:53.058Z,17.22
2018-04-09T04:10:33.462Z,17.25
2018-04-09T04:11:13.998Z,17.23
2018-04-09T04:11:54.484Z,17.23
2018-04-09T04:12:34.936Z,17.18
2018-04-09T04:13:15.408Z,17.22
2018-04-09T04:13:55.958Z,17.18
2018-04-09T04:14:36.467Z,17.26
2018-04-09T04:15:16.924Z,17.25
2018-04-09T04:15:57.433Z,17.31
2018-04-09T04:16:37.956Z,17.25
2018-04-09T04:17:18.459Z,17.38
2018-04-09T04:17:58.921Z,17.31
2018-04-09T04:18:39.374Z,17.3
2018-04-09T04:19:20.133Z,17.22
2018-04-09T04:20:00.574Z,17.22
2018-04-09T04:20:41.087Z,17.25
2018-04-09T04:21:21.588Z,17.21
2018-04-09T04:22:02.135Z,17.3
2018-04-09T04:22:42.649Z,17.31
2018-04-09T04:23:23.097Z,17.4
2018-04-09T04:24:03.563Z,17.28
2018-04-09T04:24:44.080Z,17.38
2018-04-09T04:25:24.579Z,17.3
2018-04-09T04:26:05.120Z,17.3
2018-04-09T04:26:45.621Z,17.23
2018-04-09T04:27:26.132Z,17.3
2018-04-09T04:28:06.627Z,17.21
2018-04-09T04:28:47.196Z,17.3
2018-04-09T04:29:27.723Z,17.22
2018-04-09T04:30:08.189Z,17.25
2018-04-09T04:30:48.772Z,17.23
2018-04-09T04:31:29.218Z,17.22
2018-04-09T04:32:09.726Z,17.23
2018-04-09T04:32:50.250Z,17.11
2018-04-09T04:33:30.745Z,17.11
2018-04-09T04:34:11.214Z,17.08
2018-04-09T04:34:51.679Z,17.08
2018-04-09T04:35:32.362Z,17.12
2018-04-09T04:36:12.858Z,17.08
2018-04-09T04:36:53.313Z,17.22
2018-04-09T04:37:33.874Z,17.21
2018-04-09T04:38:14.334Z,17.06
2018-04-09T04:38:54.797Z,17.08
2018-04-09T04:39:35.297Z,17.25
2018-04-09T04:40:15.798Z,17.25
2018-04-09T04:40:56.270Z,17.19
2018-04-09T04:41:36.987Z,17.19
2018-04-09T04:42:17.307Z,17.23
2018-04-09T04:42:57.770Z,17.33
2018-04-09T04:43:38.298Z,17.22
2018-04-09T04:44:18.767Z,17.25
2018-04-09T04:44:59.257Z,17.26
2018-04-09T04:45:39.804Z,17.3
2018-04-09T04:46:20.246Z,17.22
2018-04-09T04:47:00.805Z,17.23
2018-04-09T04:47:41.268Z,17.18
2018-04-09T04:48:21.774Z,17.12
2018-04-09T04:49:02.316Z,17.12
2018-04-09T04:49:42.805Z,17.16
2018-04-09T04:50:23.308Z,17.21
2018-04-09T04:51:03.885Z,17.22
2018-04-09T04:51:44.359Z,17.06
2018-04-09T04:52:24.873Z,17.25
2018-04-09T04:53:05.328Z,17.23
2018-04-09T04:53:45.819Z,17.23
2018-04-09T04:54:26.304Z,17.25
2018-04-09T04:55:06.787Z,17.15
2018-04-09T04:55:47.243Z,17.12
2018-04-09T04:56:27.732Z,17.25
2018-04-09T04:57:08.200Z,17.22
2018-04-09T04:57:48.688Z,17.18
2018-04-09T04:58:29.171Z,17.22
2018-04-09T04:59:09.660Z,17.23
2018-04-09T04:59:50.157Z,17.28
2018-04-09T05:00:30.610Z,17.22
2018-04-09T05:01:11.145Z,17.11
2018-04-09T05:01:51.595Z,17.25
2018-04-09T05:02:32.144Z,17.18
2018-04-09T05:03:12.634Z,17.06
2018-04-09T05:03:53.142Z,17.18
2018-04-09T05:04:33.623Z,17.19
2018-04-09T05:05:14.163Z,17.21
2018-04-09T05:05:54.618Z,17.22
2018-04-09T05:06:35.142Z,17.22
2018-04-09T05:07:15.628Z,17.25
2018-04-09T05:07:56.072Z,17.21
2018-04-09T05:08:36.596Z,17.23
2018-04-09T05:09:17.116Z,17.26
2018-04-09T05:09:57.609Z,17.33
2018-04-09T05:10:38.091Z,17.31
2018-04-09T05:11:18.660Z,17.34
2018-04-09T05:11:59.072Z,17.31
2018-04-09T05:12:39.599Z,17.31
2018-04-09T05:13:20.098Z,17.36
2018-04-09T05:14:00.596Z,17.38
2018-04-09T05:14:41.085Z,17.26
2018-04-09T05:15:21.543Z,17.25
2018-04-09T05:16:02.069Z,17.22
2018-04-09T05:16:42.580Z,17.23
2018-04-09T05:17:23.041Z,17.18
2018-04-09T05:18:03.602Z,17.26
2018-04-09T05:18:44.062Z,17.21
2018-04-09T05:19:24.572Z,17.23
2018-04-09T05:20:05.046Z,17.26
2018-04-09T05:20:45.695Z,17.23
2018-04-09T05:21:26.198Z,17.26
2018-04-09T05:22:06.654Z,17.22
2018-04-09T05:22:47.209Z,17.25
2018-04-09T05:23:27.701Z,17.21
2018-04-09T05:24:08.182Z,17.23
2018-04-09T05:24:48.684Z,17.34
2018-04-09T05:25:29.152Z,17.36
2018-04-09T05:26:09.636Z,17.44
2018-04-09T05:26:50.147Z,17.41
2018-04-09T05:27:30.661Z,17.48
2018-04-09T05:28:11.136Z,17.43
2018-04-09T05:28:51.694Z,17.4
2018-04-09T05:29:32.164Z,17.38
2018-04-09T05:30:12.661Z,17.44
2018-04-09T05:30:53.206Z,17.33
2018-04-09T05:31:33.649Z,17.44
2018-04-09T05:32:14.146Z,17.48
2018-04-09T05:32:54.683Z,17.44
2018-04-09T05:33:35.152Z,17.37
2018-04-09T05:34:15.764Z,17.31
2018-04-09T05:34:56.411Z,17.31
2018-04-09T05:35:36.840Z,17.23
2018-04-09T05:36:17.294Z,17.26
2018-04-09T05:36:57.808Z,17.36
2018-04-09T05:37:38.344Z,17.4
2018-04-09T05:38:18.790Z,17.4
2018-04-09T05:38:59.260Z,17.43
2018-04-09T05:39:39.801Z,17.46
2018-04-09T05:40:20.385Z,17.49
2018-04-09T05:41:00.846Z,17.52
2018-04-09T05:41:41.402Z,17.64
2018-04-09T05:42:21.853Z,17.62
2018-04-09T05:43:02.431Z,17.66
2018-04-09T05:43:42.826Z,17.71
2018-04-09T05:44:23.302Z,17.71
2018-04-09T05:45:03.825Z,17.71
2018-04-09T05:45:44.298Z,17.72
2018-04-09T05:46:24.814Z,17.72
2018-04-09T05:47:05.285Z,17.71
2018-04-09T05:47:45.757Z,17.71
2018-04-09T05:48:26.272Z,17.74
2018-04-09T05:49:06.785Z,17.89
2018-04-09T05:49:47.257Z,17.82
2018-04-09T05:50:27.779Z,17.81
2018-04-09T05:51:08.249Z,17.74
2018-04-09T05:51:48.749Z,17.82
2018-04-09T05:52:29.265Z,17.81
2018-04-09T05:53:09.797Z,17.75
2018-04-09T05:53:50.266Z,17.86
2018-04-09T05:54:30.799Z,17.78
2018-04-09T05:55:11.282Z,17.9
2018-04-09T05:55:51.790Z,17.86
2018-04-09T05:56:32.404Z,17.82
2018-04-09T05:57:12.959Z,17.9
2018-04-09T05:57:53.489Z,17.82
2018-04-09T05:58:33.978Z,17.89
2018-04-09T05:59:14.497Z,17.89
2018-04-09T05:59:54.987Z,17.92
2018-04-09T06:00:35.592Z,17.77
2018-04-09T06:01:16.099Z,17.87
2018-04-09T06:01:56.537Z,17.9
2018-04-09T06:02:37.042Z,17.89
2018-04-09T06:03:17.547Z,17.89
2018-04-09T06:03:58.081Z,17.93
2018-04-09T06:04:38.547Z,17.93
2018-04-09T06:05:19.082Z,17.96
2018-04-09T06:05:59.523Z,18.08
2018-04-09T06:06:40.072Z,17.97
2018-04-09T06:07:20.544Z,18
2018-04-09T06:08:01.091Z,18.07
2018-04-09T06:08:41.481Z,18.07
2018-04-09T06:09:22.000Z,17.93
2018-04-09T06:10:02.574Z,18.05
2018-04-09T06:10:43.044Z,18.1
2018-04-09T06:11:23.564Z,18.03
2018-04-09T06:12:04.081Z,17.97
2018-04-09T06:12:44.547Z,18.03
2018-04-09T06:13:25.054Z,18.02
2018-04-09T06:14:05.546Z,18.05
2018-04-09T06:14:45.996Z,18.03
2018-04-09T06:15:26.631Z,18.1
2018-04-09T06:16:07.145Z,17.93
2018-04-09T06:16:47.652Z,18.05
2018-04-09T06:17:28.125Z,18.08
2018-04-09T06:18:08.598Z,18.08
2018-04-09T06:18:49.108Z,18.15
2018-04-09T06:19:29.751Z,18.15
2018-04-09T06:20:10.255Z,18.23
2018-04-09T06:20:50.728Z,18.25
2018-04-09T06:21:31.196Z,18.3
2018-04-09T06:22:11.729Z,18.21
2018-04-09T06:22:52.226Z,18.25
2018-04-09T06:23:32.687Z,18.2
2018-04-09T06:24:13.109Z,18.3
2018-04-09T06:24:53.598Z,18.36
2018-04-09T06:25:34.125Z,18.33
2018-04-09T06:26:14.629Z,18.41
2018-04-09T06:26:55.185Z,18.42
2018-04-09T06:27:35.711Z,18.55
2018-04-09T06:28:16.190Z,18.51
2018-04-09T06:28:56.691Z,18.45
2018-04-09T06:29:37.234Z,18.39
2018-04-09T06:30:17.680Z,18.51
2018-04-09T06:30:58.245Z,18.41
2018-04-09T06:31:38.882Z,18.39
2018-04-09T06:32:19.456Z,18.45
2018-04-09T06:32:59.944Z,18.41
2018-04-09T06:33:40.420Z,18.44
2018-04-09T06:34:20.882Z,18.44
2018-04-09T06:35:01.393Z,18.39
2018-04-09T06:35:41.960Z,18.39
2018-04-09T06:36:22.467Z,18.42
2018-04-09T06:37:02.938Z,18.39
2018-04-09T06:37:43.421Z,18.44
2018-04-09T06:38:23.919Z,18.44
2018-04-09T06:39:04.522Z,18.41
2018-04-09T06:39:44.963Z,18.44
2018-04-09T06:40:25.510Z,18.42
2018-04-09T06:41:05.986Z,18.55
2018-04-09T06:41:46.502Z,18.55
2018-04-09T06:42:26.996Z,18.6
2018-04-09T06:43:07.505Z,18.52
2018-04-09T06:43:48.005Z,18.52
2018-04-09T06:44:28.525Z,18.54
2018-04-09T06:45:08.988Z,18.52
2018-04-09T06:45:49.500Z,18.62
2018-04-09T06:46:30.028Z,18.69
2018-04-09T06:47:10.469Z,18.81
2018-04-09T06:47:51.046Z,18.7
2018-04-09T06:48:31.514Z,18.76
2018-04-09T06:49:11.967Z,18.9
2018-04-09T06:49:52.527Z,18.88
2018-04-09T06:50:33.055Z,18.76
2018-04-09T06:51:13.667Z,18.8
2018-04-09T06:51:54.157Z,18.73
2018-04-09T06:52:34.650Z,18.75
2018-04-09T06:53:15.375Z,18.75
2018-04-09T06:53:55.826Z,18.76
2018-04-09T06:54:36.349Z,18.75
2018-04-09T06:55:16.828Z,18.62
2018-04-09T06:55:57.348Z,18.54
2018-04-09T06:56:37.830Z,18.55
2018-04-09T06:57:18.332Z,18.62
2018-04-09T06:57:58.842Z,18.76
2018-04-09T06:58:39.334Z,18.84
2018-04-09T06:59:19.962Z,18.92
2018-04-09T07:00:00.443Z,18.99
2018-04-09T07:00:40.929Z,19.06
2018-04-09T07:01:21.428Z,19.11
2018-04-09T07:02:02.118Z,19.14
2018-04-09T07:02:42.594Z,19.07
2018-04-09T07:03:23.099Z,19.02
2018-04-09T07:04:03.629Z,19.07
2018-04-09T07:04:44.063Z,19.11
2018-04-09T07:05:24.660Z,19.16
2018-04-09T07:06:05.120Z,19.1
2018-04-09T07:06:45.592Z,19.14
2018-04-09T07:07:26.082Z,19.16
2018-04-09T07:08:06.603Z,19.16
2018-04-09T07:08:47.077Z,19.16
2018-04-09T07:09:27.599Z,19.23
2018-04-09T07:10:08.118Z,19.25
2018-04-09T07:10:48.576Z,19.22
2018-04-09T07:11:29.059Z,19.28
2018-04-09T07:12:09.533Z,19.23
2018-04-09T07:12:50.200Z,19.33
2018-04-09T07:13:30.537Z,19.32
2018-04-09T07:14:11.045Z,19.4
2018-04-09T07:14:51.520Z,19.46
2018-04-09T07:15:32.022Z,19.47
2018-04-09T07:16:12.499Z,19.41
2018-04-09T07:16:52.983Z,19.39
2018-04-09T07:17:33.433Z,19.4
2018-04-09T07:18:13.920Z,19.36
2018-04-09T07:18:54.406Z,19.41
2018-04-09T07:19:34.862Z,19.41
2018-04-09T07:20:15.364Z,19.56
2018-04-09T07:20:55.829Z,19.61
2018-04-09T07:21:36.371Z,19.58
2018-04-09T07:22:16.852Z,19.69
2018-04-09T07:22:57.366Z,19.63
2018-04-09T07:23:37.926Z,19.69
2018-04-09T07:24:18.416Z,19.65
2018-04-09T07:24:58.962Z,19.69
2018-04-09T07:25:39.391Z,19.78
2018-04-09T07:26:19.911Z,19.71
2018-04-09T07:27:00.374Z,19.76
2018-04-09T07:27:40.878Z,19.69
2018-04-09T07:28:21.454Z,19.94
2018-04-09T07:29:01.872Z,19.94
2018-04-09T07:29:42.343Z,19.95
2018-04-09T07:30:23.313Z,19.69
2018-04-09T07:31:03.781Z,19.66
2018-04-09T07:31:44.209Z,19.73
2018-04-09T07:32:24.744Z,19.69
2018-04-09T07:33:05.315Z,19.8
2018-04-09T07:33:45.771Z,19.81
2018-04-09T07:34:26.314Z,19.73
2018-04-09T07:35:06.762Z,19.76
2018-04-09T07:35:47.312Z,19.86
2018-04-09T07:36:27.776Z,19.78
2018-04-09T07:37:08.293Z,19.8
2018-04-09T07:37:48.793Z,19.84
2018-04-09T07:38:29.248Z,19.88
2018-04-09T07:39:09.791Z,19.96
2018-04-09T07:39:50.306Z,20.06
2018-04-09T07:40:30.821Z,20.11
2018-04-09T07:41:11.289Z,20.08
2018-04-09T07:41:51.784Z,20.06
2018-04-09T07:42:32.302Z,20.17
2018-04-09T07:43:12.778Z,20.18
2018-04-09T07:43:53.286Z,20.26
2018-04-09T07:44:33.792Z,20.32
2018-04-09T07:45:14.220Z,20.38
2018-04-09T07:45:54.716Z,20.41
2018-04-09T07:46:35.219Z,20.42
2018-04-09T07:47:17.081Z,20.41
2018-04-09T07:47:57.577Z,20.39
2018-04-09T07:48:38.113Z,20.39
2018-04-09T07:49:18.555Z,20.47
2018-04-09T07:49:59.070Z,20.42
2018-04-09T07:50:39.528Z,20.42
2018-04-09T07:51:20.178Z,20.43
2018-04-09T07:52:00.706Z,20.41
2018-04-09T07:52:41.204Z,20.47
2018-04-09T07:53:21.665Z,20.48
2018-04-09T07:54:02.135Z,20.43
2018-04-09T07:54:42.623Z,20.55
2018-04-09T07:55:23.155Z,20.5
2018-04-09T07:56:03.663Z,20.48
2018-04-09T07:56:44.111Z,20.5
2018-04-09T07:57:24.665Z,20.58
2018-04-09T07:58:05.110Z,20.5
2018-04-09T07:58:45.604Z,20.54
2018-04-09T07:59:26.228Z,20.59
2018-04-09T08:00:06.710Z,20.58
2018-04-09T08:00:47.267Z,20.52
2018-04-09T08:01:27.721Z,20.48
2018-04-09T08:02:08.318Z,20.43
2018-04-09T08:02:48.853Z,20.51
2018-04-09T08:03:29.369Z,20.54
2018-04-09T08:04:09.859Z,20.43
2018-04-09T08:04:50.373Z,20.42
2018-04-09T08:05:30.895Z,20.38
2018-04-09T08:06:11.357Z,20.52
2018-04-09T08:06:51.865Z,20.55
2018-04-09T08:07:32.369Z,20.55
2018-04-09T08:08:12.822Z,20.57
2018-04-09T08:08:53.338Z,20.58
2018-04-09T08:09:33.829Z,20.59
2018-04-09T08:10:14.389Z,20.61
2018-04-09T08:10:54.891Z,20.58
2018-04-09T08:11:35.390Z,20.54
2018-04-09T08:12:16.292Z,20.42
2018-04-09T08:12:56.797Z,20.41
2018-04-09T08:13:37.252Z,20.47
2018-04-09T08:14:17.773Z,20.51
2018-04-09T08:14:58.271Z,20.52
2018-04-09T08:15:38.816Z,20.54
2018-04-09T08:16:19.298Z,20.55
2018-04-09T08:16:59.932Z,20.51
2018-04-09T08:17:40.544Z,20.47
2018-04-09T08:18:21.884Z,20.51
2018-04-09T08:19:02.353Z,20.39
2018-04-09T08:19:42.816Z,20.39
2018-04-09T08:20:23.422Z,20.42
2018-04-09T08:21:03.937Z,20.47
2018-04-09T08:21:44.506Z,20.48
2018-04-09T08:22:25.048Z,20.47
2018-04-09T08:23:05.525Z,20.55
2018-04-09T08:23:46.204Z,20.51
2018-04-09T08:24:26.675Z,20.52
2018-04-09T08:25:07.191Z,20.43
2018-04-09T08:25:47.916Z,20.43
2018-04-09T08:26:28.415Z,20.51
2018-04-09T08:27:08.889Z,20.48
2018-04-09T08:27:49.380Z,20.59
2018-04-09T08:28:30.063Z,20.52
2018-04-09T08:29:10.550Z,20.51
2018-04-09T08:29:51.047Z,20.58
2018-04-09T08:30:31.643Z,20.55
2018-04-09T08:31:12.156Z,20.73
2018-04-09T08:31:52.634Z,20.73
2018-04-09T08:32:33.177Z,20.79
2018-04-09T08:33:13.701Z,20.72
2018-04-09T08:33:54.159Z,20.72
2018-04-09T08:34:34.638Z,20.74
2018-04-09T08:35:15.168Z,20.79
2018-04-09T08:35:55.683Z,20.84
2018-04-09T08:36:36.168Z,20.84
2018-04-09T08:37:16.638Z,20.87
2018-04-09T08:37:57.231Z,20.85
2018-04-09T08:38:37.709Z,20.74
2018-04-09T08:39:18.226Z,20.72
2018-04-09T08:39:58.767Z,20.58
2018-04-09T08:40:39.234Z,20.43
2018-04-09T08:41:19.807Z,20.47
2018-04-09T08:42:00.331Z,20.52
2018-04-09T08:42:40.838Z,20.41
2018-04-09T08:43:21.313Z,20.55